Time;durP1;ratioP1;P1;durP2;ratioP2;P2;SDS_P1;SDS_P2;PMS_P1;PMS_P2;Temp;Humidity;BMP_temperature;BMP_pressure;BME280_temperature;BME280_humidity;BME280_pressure;Samples;Min_cycle;Max_cycle;Signal;HPM_P1;HPM_P2
2022/12/02 00:01:39;;;;;;;32.63;13.18;;;;;;;6.62;70.15;101000.78;10369659;28;20076;-66
2022/12/02 00:06:40;;;;;;;41.50;15.13;;;;;;;6.60;69.19;100986.72;10364342;28;20132;-66
2022/12/02 00:11:44;;;;;;;35.53;14.57;;;;;;;6.51;69.24;100994.53;10363733;28;20073;-67
2022/12/02 00:16:45;;;;;;;34.53;13.80;;;;;;;6.48;70.12;100992.16;10367407;28;20164;-66
2022/12/02 00:21:49;;;;;;;42.15;15.80;;;;;;;6.49;69.26;100991.16;10374769;28;20050;-67
2022/12/02 00:26:50;;;;;;;39.42;13.93;;;;;;;6.49;70.11;100977.78;10367615;28;20080;-66
2022/12/02 00:31:51;;;;;;;32.28;13.25;;;;;;;6.50;69.60;100976.84;10361342;28;20077;-66
2022/12/02 00:36:53;;;;;;;38.20;15.13;;;;;;;6.49;69.60;100972.44;10367922;28;20132;-66
2022/12/02 00:41:54;;;;;;;36.88;14.50;;;;;;;6.48;69.68;100973.44;10369739;28;20100;-66
2022/12/02 00:46:56;;;;;;;43.83;16.27;;;;;;;6.49;70.12;100975.13;10358641;28;20129;-65
2022/12/02 00:51:57;;;;;;;41.20;14.23;;;;;;;6.51;69.16;100972.31;10364261;28;20049;-67
2022/12/02 00:57:00;;;;;;;36.90;13.15;;;;;;;6.52;69.88;100958.84;10361746;28;20138;-66
2022/12/02 01:02:01;;;;;;;37.35;13.90;;;;;;;6.45;70.04;100967.53;10366540;28;20084;-67
2022/12/02 01:07:02;;;;;;;41.97;15.70;;;;;;;6.47;69.51;100958.38;10366134;28;20489;-65
2022/12/02 01:12:04;;;;;;;45.33;15.68;;;;;;;6.47;69.95;100947.72;10368909;28;20456;-66
2022/12/02 01:17:05;;;;;;;42.50;14.48;;;;;;;6.39;69.43;100952.88;10365376;28;20069;-66
2022/12/02 01:22:07;;;;;;;46.45;14.95;;;;;;;6.42;69.23;100954.44;10374046;28;20113;-66
2022/12/02 01:27:08;;;;;;;41.63;15.27;;;;;;;6.37;69.75;100952.16;10371377;28;20042;-65
2022/12/02 01:32:09;;;;;;;46.20;17.05;;;;;;;6.31;70.34;100958.88;10370581;28;20073;-66
2022/12/02 01:37:11;;;;;;;50.28;16.58;;;;;;;6.33;70.01;100956.09;10363564;28;20053;-66
2022/12/02 01:42:12;;;;;;;46.55;16.25;;;;;;;6.28;70.17;100955.63;10362187;28;20145;-65
2022/12/02 01:47:14;;;;;;;51.53;17.95;;;;;;;6.25;69.93;100955.91;10359303;28;20144;-66
2022/12/02 01:52:15;;;;;;;41.75;15.90;;;;;;;6.28;69.33;100964.50;10372155;28;20156;-65
2022/12/02 01:57:25;;;;;;;46.72;16.13;;;;;;;6.32;70.19;100955.25;10366891;28;20044;-66
2022/12/02 02:02:34;;;;;;;44.70;16.70;;;;;;;6.25;70.38;100954.09;10362022;28;20088;-67
2022/12/02 02:07:37;;;;;;;42.00;15.63;;;;;;;6.25;70.27;100950.56;10368490;28;20053;-65
2022/12/02 02:12:39;;;;;;;41.70;14.93;;;;;;;6.25;69.74;100942.56;10371454;28;20107;-65
2022/12/02 02:17:41;;;;;;;44.85;15.48;;;;;;;6.30;69.64;100949.19;10374669;28;20042;-66
2022/12/02 02:23:04;;;;;;;47.80;15.88;;;;;;;6.31;70.58;100950.03;10374725;28;20136;-66
2022/12/02 02:28:06;;;;;;;39.72;15.80;;;;;;;6.31;70.01;100939.34;10366700;28;20053;-65
2022/12/02 02:33:10;;;;;;;44.15;16.58;;;;;;;6.31;69.98;100936.69;10363754;28;20179;-66
2022/12/02 02:38:14;;;;;;;41.05;15.68;;;;;;;6.39;69.28;100933.34;10362183;28;20090;-65
2022/12/02 02:43:18;;;;;;;41.75;14.90;;;;;;;6.34;69.76;100936.44;10361389;28;20057;-65
2022/12/02 02:48:21;;;;;;;42.42;15.48;;;;;;;6.34;70.47;100931.09;10373016;28;20129;-65
2022/12/02 02:53:24;;;;;;;42.00;15.43;;;;;;;6.34;69.96;100929.25;10374623;28;20089;-66
2022/12/02 02:58:26;;;;;;;40.60;15.05;;;;;;;6.41;69.25;100932.22;10372307;28;20141;-65
2022/12/02 03:03:32;;;;;;;43.20;16.73;;;;;;;6.34;69.70;100921.25;10369611;28;20046;-66
2022/12/02 03:08:35;;;;;;;43.00;15.07;;;;;;;6.36;69.93;100915.78;10343886;28;20061;-66
2022/12/02 03:13:39;;;;;;;42.40;16.90;;;;;;;6.33;69.46;100906.19;10364624;28;20542;-65
2022/12/02 03:18:43;;;;;;;40.33;13.88;;;;;;;6.34;69.40;100902.56;10361756;28;20046;-66
2022/12/02 03:23:47;;;;;;;44.35;15.10;;;;;;;6.34;70.25;100901.72;10360260;28;20531;-65
2022/12/02 03:28:49;;;;;;;38.80;15.32;;;;;;;6.30;69.88;100895.81;10358943;28;20069;-66
2022/12/02 03:33:50;;;;;;;43.03;14.80;;;;;;;6.30;69.83;100887.78;10370843;28;20505;-65
2022/12/02 03:38:52;;;;;;;37.88;14.10;;;;;;;6.32;70.03;100901.84;10365555;28;20124;-66
2022/12/02 03:43:56;;;;;;;38.10;14.55;;;;;;;6.22;69.98;100900.09;10371907;28;20064;-67
2022/12/02 03:48:59;;;;;;;41.33;16.23;;;;;;;6.29;69.22;100888.75;10368610;28;20103;-66
2022/12/02 03:54:00;;;;;;;38.28;14.40;;;;;;;6.24;69.96;100884.78;10366000;28;20070;-67
2022/12/02 03:59:02;;;;;;;38.05;14.18;;;;;;;6.32;70.12;100887.66;10363039;28;20145;-67
2022/12/02 04:04:03;;;;;;;37.97;13.40;;;;;;;6.31;69.57;100877.94;10368234;28;20052;-66
2022/12/02 04:09:04;;;;;;;37.00;14.82;;;;;;;6.34;69.61;100878.53;10370388;28;20132;-66
2022/12/02 04:14:06;;;;;;;39.30;16.33;;;;;;;6.31;69.88;100869.94;10372895;28;20499;-66
2022/12/02 04:19:07;;;;;;;43.95;15.25;;;;;;;6.29;69.78;100869.22;10367643;28;20665;-65
2022/12/02 04:24:09;;;;;;;44.47;16.30;;;;;;;6.23;69.28;100859.94;10365378;28;20096;-66
2022/12/02 04:29:10;;;;;;;39.53;15.13;;;;;;;6.17;69.97;100857.81;10368496;28;20136;-65
2022/12/02 04:34:12;;;;;;;44.63;16.35;;;;;;;6.23;69.10;100848.41;10367264;28;20074;-66
2022/12/02 04:39:13;;;;;;;46.10;16.58;;;;;;;6.17;70.12;100851.63;10362369;28;20153;-66
2022/12/02 04:44:14;;;;;;;40.95;17.98;;;;;;;6.12;69.71;100846.69;10367605;28;20142;-66
2022/12/02 04:49:18;;;;;;;39.55;16.10;;;;;;;6.15;69.81;100849.94;10375663;28;20058;-66
2022/12/02 04:54:20;;;;;;;41.65;14.75;;;;;;;6.16;69.97;100850.75;10365481;28;20581;-66
2022/12/02 04:59:21;;;;;;;39.50;14.95;;;;;;;6.14;69.94;100831.38;10364236;28;20145;-66
2022/12/02 05:04:23;;;;;;;47.97;16.30;;;;;;;6.16;69.05;100842.75;10367243;28;20820;-67
2022/12/02 05:09:24;;;;;;;38.25;14.60;;;;;;;6.14;69.28;100834.03;10359358;28;20145;-66
2022/12/02 05:14:26;;;;;;;39.30;14.75;;;;;;;6.15;69.03;100841.91;10367972;28;20054;-67
2022/12/02 05:19:27;;;;;;;41.30;14.80;;;;;;;6.20;69.80;100838.00;10362220;28;20128;-66
2022/12/02 05:24:28;;;;;;;40.72;15.77;;;;;;;6.04;70.28;100839.38;10367732;28;20474;-65
2022/12/02 05:29:30;;;;;;;38.05;14.50;;;;;;;6.08;69.99;100843.47;10363687;28;20130;-65
2022/12/02 05:34:31;;;;;;;45.03;15.60;;;;;;;6.00;70.03;100837.94;10361888;28;20053;-65
2022/12/02 05:39:32;;;;;;;40.95;14.20;;;;;;;5.90;70.15;100840.53;10360948;28;20145;-66
2022/12/02 05:44:34;;;;;;;43.22;15.02;;;;;;;5.84;70.32;100846.38;10348798;28;20049;-65
2022/12/02 05:49:41;;;;;;;41.22;14.63;;;;;;;5.91;70.67;100836.88;10367524;28;20145;-65
2022/12/02 05:54:43;;;;;;;38.33;15.52;;;;;;;5.78;70.75;100844.25;10370930;28;20137;-65
2022/12/02 05:59:44;;;;;;;40.92;14.63;;;;;;;5.74;70.60;100840.16;10374365;28;20506;-66
2022/12/02 06:04:46;;;;;;;33.00;13.48;;;;;;;5.71;70.86;100843.13;10346493;28;20141;-65
2022/12/02 06:09:51;;;;;;;36.38;14.23;;;;;;;5.74;70.09;100848.16;10372255;28;20132;-65
2022/12/02 06:14:53;;;;;;;32.25;13.77;;;;;;;5.72;70.33;100847.47;10374636;28;20484;-66
2022/12/02 06:19:56;;;;;;;35.97;12.70;;;;;;;5.67;70.64;100841.69;10358850;28;20074;-65
2022/12/02 06:25:00;;;;;;;31.35;13.35;;;;;;;5.56;70.87;100840.78;10355716;28;20080;-67
2022/12/02 06:30:03;;;;;;;32.20;12.40;;;;;;;5.61;71.35;100842.19;10360096;28;20132;-66
2022/12/02 06:35:25;;;;;;;37.50;14.23;;;;;;;5.65;70.95;100838.31;10377876;28;20496;-66
2022/12/02 06:40:32;;;;;;;34.00;12.00;;;;;;;5.60;71.09;100843.19;10358662;28;20050;-66
2022/12/02 06:45:34;;;;;;;25.73;11.33;;;;;;;5.54;70.95;100847.22;10366652;28;20084;-65
2022/12/02 06:50:41;;;;;;;29.45;11.90;;;;;;;5.45;71.51;100843.53;10367140;28;20049;-66
2022/12/02 06:55:43;;;;;;;29.48;11.57;;;;;;;5.45;71.27;100840.00;10348250;28;20050;-66
2022/12/02 07:00:45;;;;;;;25.48;11.18;;;;;;;5.46;70.97;100847.88;10358980;28;20368;-66
2022/12/02 07:05:46;;;;;;;23.23;10.40;;;;;;;5.35;71.22;100840.78;10371136;28;20050;-64
2022/12/02 07:10:48;;;;;;;26.00;11.45;;;;;;;5.29;71.46;100848.44;10376415;28;20107;-66
2022/12/02 07:15:49;;;;;;;21.30;9.68;;;;;;;5.31;70.94;100844.69;10373631;28;20065;-66
2022/12/02 07:20:51;;;;;;;24.60;10.73;;;;;;;5.35;71.55;100843.47;10368666;28;20132;-65
2022/12/02 07:25:54;;;;;;;22.30;9.75;;;;;;;5.34;71.28;100839.09;10365416;28;20045;-67
2022/12/02 07:31:22;;;;;;;23.15;9.68;;;;;;;5.11;71.71;100843.69;10373765;28;20141;-66
2022/12/02 07:36:23;;;;;;;23.23;10.30;;;;;;;5.16;71.57;100846.81;10368283;28;20062;-67
2022/12/02 07:41:24;;;;;;;24.10;10.18;;;;;;;5.21;71.37;100845.59;10375207;28;20084;-66
2022/12/02 07:46:26;;;;;;;21.35;8.95;;;;;;;5.23;71.43;100838.31;10366677;28;20141;-65
2022/12/02 07:51:27;;;;;;;23.08;10.30;;;;;;;5.09;71.57;100850.97;10368663;28;20060;-67
2022/12/02 07:56:29;;;;;;;18.55;9.27;;;;;;;5.15;71.71;100841.63;10365510;28;20080;-66
2022/12/02 08:01:30;;;;;;;23.73;9.65;;;;;;;5.07;72.10;100846.75;10371377;28;20088;-67
2022/12/02 08:06:32;;;;;;;22.38;10.18;;;;;;;5.06;71.98;100842.41;10374646;28;20049;-67
2022/12/02 08:11:40;;;;;;;22.00;8.77;;;;;;;4.99;71.85;100847.38;10364560;28;20501;-65
2022/12/02 08:16:41;;;;;;;20.63;9.57;;;;;;;4.96;71.95;100840.50;10361267;28;20453;-65
2022/12/02 08:21:43;;;;;;;20.63;9.25;;;;;;;4.91;72.37;100848.00;10369909;28;20575;-66
2022/12/02 08:26:44;;;;;;;24.65;9.98;;;;;;;4.90;72.13;100850.81;10368080;28;20046;-66
2022/12/02 08:31:45;;;;;;;23.15;9.90;;;;;;;4.88;72.20;100845.63;10366254;28;20543;-66
2022/12/02 08:36:47;;;;;;;22.83;10.35;;;;;;;4.90;71.94;100849.00;10367418;28;20141;-66
2022/12/02 08:41:48;;;;;;;26.33;9.70;;;;;;;4.91;72.04;100849.84;10358714;28;20070;-64
2022/12/02 08:46:50;;;;;;;22.38;9.93;;;;;;;4.93;72.50;100846.06;10372347;28;20148;-66
2022/12/02 08:51:55;;;;;;;23.58;10.23;;;;;;;4.99;72.84;100847.38;10369588;28;20042;-66
2022/12/02 08:56:59;;;;;;;22.95;10.00;;;;;;;5.05;71.88;100841.53;10379411;28;20137;-65
2022/12/02 09:02:00;;;;;;;20.77;9.45;;;;;;;4.96;72.14;100835.16;10361667;28;20129;-66
2022/12/02 09:07:02;;;;;;;21.77;10.10;;;;;;;4.89;72.82;100844.63;10363932;28;20049;-65
2022/12/02 09:12:03;;;;;;;21.63;9.18;;;;;;;4.96;72.19;100839.66;10369539;28;20073;-65
2022/12/02 09:17:05;;;;;;;19.23;9.10;;;;;;;4.95;72.60;100840.63;10362176;28;20070;-64
2022/12/02 09:22:06;;;;;;;21.10;9.15;;;;;;;4.92;72.72;100836.41;10369350;28;20058;-63
2022/12/02 09:27:08;;;;;;;25.27;10.02;;;;;;;4.94;72.65;100842.44;10362597;28;20133;-66
2022/12/02 09:32:09;;;;;;;19.65;8.85;;;;;;;4.94;72.09;100844.28;10365375;28;20085;-64
2022/12/02 09:37:10;;;;;;;21.90;9.38;;;;;;;5.01;72.27;100839.25;10372716;28;20077;-65
2022/12/02 09:42:13;;;;;;;18.65;9.02;;;;;;;5.09;72.30;100826.97;10365382;28;20057;-63
2022/12/02 09:47:15;;;;;;;17.98;8.68;;;;;;;5.04;72.13;100831.03;10380156;28;20049;-64
2022/12/02 09:52:21;;;;;;;19.92;8.63;;;;;;;5.01;72.87;100836.59;10367627;28;20064;-65
2022/12/02 09:57:31;;;;;;;20.27;8.73;;;;;;;5.00;72.87;100824.28;10371361;28;20060;-64
2022/12/02 10:02:49;;;;;;;18.75;8.48;;;;;;;4.91;72.71;100828.53;10372323;28;20044;-65
2022/12/02 10:07:54;;;;;;;20.73;8.00;;;;;;;5.00;72.72;100822.44;10376887;28;20049;-65
2022/12/02 10:12:55;;;;;;;17.85;7.82;;;;;;;4.91;72.46;100828.53;10374530;28;20050;-65
2022/12/02 10:18:01;;;;;;;21.35;9.40;;;;;;;4.83;72.82;100823.84;10353178;28;20046;-65
2022/12/02 10:23:07;;;;;;;18.67;8.13;;;;;;;4.94;72.41;100818.47;10367023;28;20069;-66
2022/12/02 10:28:22;;;;;;;20.33;9.65;;;;;;;4.96;72.59;100815.69;10365148;28;20081;-65
2022/12/02 10:33:26;;;;;;;19.05;8.80;;;;;;;4.92;72.59;100812.44;10374842;28;20144;-65
2022/12/02 10:38:40;;;;;;;21.65;9.20;;;;;;;4.95;72.73;100805.97;10357871;28;20097;-65
2022/12/02 10:43:51;;;;;;;18.77;9.50;;;;;;;5.05;72.65;100808.72;10376058;28;20053;-65
2022/12/02 10:48:53;;;;;;;18.48;8.55;;;;;;;5.00;72.82;100800.28;10368969;28;20088;-65
2022/12/02 10:53:57;;;;;;;20.13;9.27;;;;;;;5.09;72.74;100787.00;10369751;28;20512;-66
2022/12/02 10:59:01;;;;;;;18.70;8.55;;;;;;;5.05;72.75;100785.59;10373138;28;20138;-65
2022/12/02 11:04:04;;;;;;;20.35;9.00;;;;;;;5.04;73.29;100777.75;10369378;28;20140;-66
2022/12/02 11:09:05;;;;;;;17.33;8.95;;;;;;;5.02;72.71;100777.88;10365741;28;20073;-65
2022/12/02 11:14:39;;;;;;;18.45;8.63;;;;;;;5.13;72.78;100771.63;10343647;28;20062;-66
2022/12/02 11:19:45;;;;;;;18.85;9.05;;;;;;;5.17;72.72;100767.72;10358061;28;20073;-65
2022/12/02 11:24:46;;;;;;;20.17;9.15;;;;;;;5.17;72.71;100765.06;10367351;28;20114;-66
2022/12/02 11:30:03;;;;;;;20.35;9.93;;;;;;;5.22;72.62;100756.69;10351262;28;20141;-67
2022/12/02 11:35:13;;;;;;;17.90;8.80;;;;;;;5.14;72.74;100752.00;10361340;28;20065;-66
2022/12/02 11:40:21;;;;;;;22.10;9.45;;;;;;;5.25;72.50;100751.06;10353446;28;20093;-66
2022/12/02 11:45:22;;;;;;;19.15;9.95;;;;;;;5.25;73.08;100746.59;10365309;28;20054;-66
2022/12/02 11:50:31;;;;;;;20.38;9.30;;;;;;;5.27;72.99;100733.13;10357158;28;20049;-66
2022/12/02 11:55:42;;;;;;;18.88;10.07;;;;;;;5.20;72.96;100738.16;10364674;28;20074;-65
2022/12/02 12:01:06;;;;;;;18.52;9.07;;;;;;;5.05;73.29;100742.13;10372084;28;20111;-66
2022/12/02 12:06:09;;;;;;;20.52;9.98;;;;;;;5.22;72.72;100732.69;10357154;28;20049;-66
2022/12/02 12:11:20;;;;;;;20.50;8.80;;;;;;;5.19;72.73;100730.28;10365468;28;20088;-65
2022/12/02 12:16:23;;;;;;;20.02;9.00;;;;;;;5.15;72.81;100714.56;10366910;28;20140;-65
2022/12/02 12:21:30;;;;;;;20.92;9.80;;;;;;;5.12;72.97;100720.16;10365522;28;20045;-66
2022/12/02 12:26:33;;;;;;;20.92;9.18;;;;;;;5.18;72.75;100716.13;10364723;28;20100;-65
2022/12/02 12:31:34;;;;;;;16.30;8.80;;;;;;;5.20;72.98;100702.66;10348097;28;20457;-65
2022/12/02 12:36:39;;;;;;;19.00;9.27;;;;;;;5.34;72.21;100700.47;10358822;28;20050;-65
2022/12/02 12:41:41;;;;;;;15.10;7.65;;;;;;;5.26;72.58;100702.13;10368370;28;20575;-65
2022/12/02 12:47:04;;;;;;;19.33;9.63;;;;;;;5.30;73.14;100692.91;10361184;28;20049;-64
2022/12/02 12:52:05;;;;;;;19.13;9.05;;;;;;;5.33;72.73;100693.47;10362406;28;20054;-65
2022/12/02 12:57:07;;;;;;;15.93;8.20;;;;;;;5.35;72.59;100688.84;10346897;28;20050;-65
2022/12/02 13:02:08;;;;;;;16.75;7.60;;;;;;;5.39;72.50;100681.44;10359879;28;20655;-65
2022/12/02 13:07:10;;;;;;;18.52;8.90;;;;;;;5.46;72.43;100687.06;10360453;28;20792;-64
2022/12/02 13:12:11;;;;;;;17.60;8.95;;;;;;;5.44;72.79;100681.88;10365574;28;20062;-65
2022/12/02 13:17:14;;;;;;;17.05;9.18;;;;;;;5.52;72.65;100682.03;10356509;28;20050;-64
2022/12/02 13:22:15;;;;;;;15.27;7.65;;;;;;;5.39;72.72;100680.56;10360046;28;20615;-66
2022/12/02 13:27:16;;;;;;;18.38;8.48;;;;;;;5.40;72.19;100684.94;10366672;28;20081;-65
2022/12/02 13:32:18;;;;;;;15.85;7.10;;;;;;;5.35;72.48;100675.53;10367376;28;20090;-65
2022/12/02 13:37:19;;;;;;;15.30;7.65;;;;;;;5.30;72.36;100683.06;10366118;28;20058;-66
2022/12/02 13:42:21;;;;;;;13.48;7.43;;;;;;;5.33;72.39;100674.81;10364624;28;20133;-65
2022/12/02 13:47:22;;;;;;;14.73;7.20;;;;;;;5.32;72.14;100673.13;10365934;28;20141;-65
2022/12/02 13:52:24;;;;;;;13.43;6.70;;;;;;;5.26;72.78;100679.00;10369041;28;20082;-65
2022/12/02 13:57:25;;;;;;;12.20;7.07;;;;;;;5.24;72.71;100686.28;10348818;28;20077;-63
2022/12/02 14:02:27;;;;;;;14.27;6.82;;;;;;;5.27;72.35;100685.16;10367297;28;20077;-64
2022/12/02 14:07:28;;;;;;;12.35;6.45;;;;;;;5.23;72.21;100689.06;10371990;28;20050;-65
2022/12/02 14:12:30;;;;;;;12.10;6.15;;;;;;;5.21;72.88;100683.84;10362873;28;20060;-65
2022/12/02 14:17:31;;;;;;;14.73;6.57;;;;;;;5.17;72.57;100682.44;10370294;28;20042;-66
2022/12/02 14:22:32;;;;;;;14.45;7.57;;;;;;;5.15;72.29;100687.94;10376222;28;20062;-65
2022/12/02 14:27:34;;;;;;;12.52;7.10;;;;;;;5.25;72.57;100679.97;10371641;28;20092;-65
2022/12/02 14:32:38;;;;;;;12.45;6.22;;;;;;;5.20;72.18;100684.84;10367913;28;20046;-65
2022/12/02 14:37:40;;;;;;;10.88;6.20;;;;;;;5.21;72.08;100693.69;10361631;28;20041;-66
2022/12/02 14:42:41;;;;;;;10.32;5.60;;;;;;;5.18;72.49;100685.97;10373075;28;20133;-66
2022/12/02 14:47:42;;;;;;;11.13;5.85;;;;;;;5.11;72.40;100685.63;10373104;28;20133;-66
2022/12/02 14:52:44;;;;;;;14.00;7.45;;;;;;;5.12;72.36;100696.16;10366703;28;20576;-65
2022/12/02 14:57:45;;;;;;;8.77;4.95;;;;;;;5.08;72.30;100696.56;10370649;28;20049;-67
2022/12/02 15:02:47;;;;;;;11.15;5.70;;;;;;;5.06;72.19;100698.53;10350476;28;20074;-66
2022/12/02 15:07:48;;;;;;;11.43;6.20;;;;;;;5.03;72.13;100696.94;10363372;28;20077;-64
2022/12/02 15:12:50;;;;;;;11.85;5.60;;;;;;;5.03;72.20;100704.94;10365304;28;20103;-66
2022/12/02 15:17:51;;;;;;;10.52;5.82;;;;;;;5.09;72.08;100714.22;10352783;28;20134;-65
2022/12/02 15:22:53;;;;;;;10.65;5.55;;;;;;;4.99;72.37;100705.34;10365928;28;20042;-66
2022/12/02 15:27:55;;;;;;;8.35;4.85;;;;;;;4.97;72.25;100713.47;10355208;28;20571;-67
2022/12/02 15:32:57;;;;;;;8.50;4.63;;;;;;;4.97;71.78;100716.97;10368194;28;20128;-67
2022/12/02 15:37:58;;;;;;;9.23;5.13;;;;;;;4.97;71.90;100718.78;10356890;28;20123;-62
2022/12/02 15:42:59;;;;;;;9.48;5.30;;;;;;;4.92;72.29;100718.34;10356187;28;20106;-64
2022/12/02 15:48:01;;;;;;;10.90;5.28;;;;;;;4.92;72.13;100724.53;10371677;28;20053;-64
2022/12/02 15:53:02;;;;;;;8.50;4.85;;;;;;;4.93;71.66;100723.53;10364951;28;20084;-65
2022/12/02 15:58:04;;;;;;;10.20;4.80;;;;;;;4.92;71.99;100721.03;10368154;28;20061;-65
2022/12/02 16:03:05;;;;;;;7.93;4.88;;;;;;;4.87;72.12;100724.06;10341975;28;20141;-64
2022/12/02 16:08:06;;;;;;;11.10;5.55;;;;;;;4.87;72.25;100720.56;10372378;28;20058;-64
2022/12/02 16:13:08;;;;;;;10.00;5.07;;;;;;;4.90;72.04;100721.16;10368461;28;20046;-64
2022/12/02 16:18:10;;;;;;;10.68;5.30;;;;;;;4.93;72.11;100720.88;10342024;28;20066;-64
2022/12/02 16:23:11;;;;;;;11.25;5.55;;;;;;;4.95;71.79;100723.41;10325950;28;20444;-63
2022/12/02 16:28:12;;;;;;;10.95;5.40;;;;;;;4.96;71.52;100735.75;10341934;28;20077;-63
2022/12/02 16:33:14;;;;;;;11.32;5.07;;;;;;;4.92;71.90;100735.19;10350057;28;20081;-64
2022/12/02 16:38:15;;;;;;;11.90;5.45;;;;;;;5.00;71.43;100731.03;10359450;28;20041;-65
2022/12/02 16:43:17;;;;;;;12.30;5.72;;;;;;;5.01;71.60;100740.69;10336909;28;20085;-65
2022/12/02 16:48:18;;;;;;;10.65;5.35;;;;;;;5.00;71.67;100747.00;10337461;28;20145;-64
2022/12/02 16:53:20;;;;;;;13.20;6.07;;;;;;;5.09;71.69;100740.88;10370273;28;20068;-64
2022/12/02 16:58:21;;;;;;;11.90;5.97;;;;;;;5.09;71.32;100749.72;10319437;28;20042;-65
2022/12/02 17:03:22;;;;;;;10.05;5.65;;;;;;;5.07;71.46;100749.00;10360444;28;20045;-65
2022/12/02 17:08:24;;;;;;;13.23;6.05;;;;;;;5.10;71.59;100751.41;10372212;28;20438;-64
2022/12/02 17:13:25;;;;;;;10.75;5.22;;;;;;;5.10;71.08;100748.75;10352327;28;20080;-64
2022/12/02 17:18:27;;;;;;;12.60;6.47;;;;;;;5.15;70.83;100753.69;10363016;28;20081;-64
2022/12/02 17:23:28;;;;;;;8.02;3.83;;;;;;;5.09;71.33;100755.03;10348015;28;20133;-64
2022/12/02 17:28:29;;;;;;;7.93;4.28;;;;;;;5.12;70.75;100752.13;10363834;28;20074;-65
2022/12/02 17:33:31;;;;;;;8.63;4.13;;;;;;;5.14;71.17;100760.00;10364103;28;20156;-66
2022/12/02 17:38:49;;;;;;;7.85;3.83;;;;;;;5.04;71.30;100754.59;10367998;28;20133;-65
2022/12/02 17:43:57;;;;;;;8.13;3.50;;;;;;;4.94;71.43;100762.53;10369764;28;20064;-64
2022/12/02 17:48:58;;;;;;;8.68;3.95;;;;;;;4.86;71.62;100774.78;10365205;28;20741;-65
2022/12/02 17:54:00;;;;;;;7.80;3.78;;;;;;;4.73;72.22;100773.16;10365354;28;20747;-65
2022/12/02 17:59:01;;;;;;;9.07;4.47;;;;;;;4.59;71.67;100780.59;10364057;28;20157;-66
2022/12/02 18:04:06;;;;;;;10.43;4.80;;;;;;;4.54;71.66;100783.63;10380673;28;20140;-64
2022/12/02 18:09:07;;;;;;;12.27;5.68;;;;;;;4.56;72.00;100776.34;10367384;28;20120;-64
2022/12/02 18:14:08;;;;;;;11.90;5.80;;;;;;;4.46;72.21;100781.59;10360346;28;20144;-65
2022/12/02 18:19:10;;;;;;;13.07;6.03;;;;;;;4.37;71.97;100785.88;10361729;28;20143;-65
2022/12/02 18:24:11;;;;;;;10.48;5.60;;;;;;;4.36;72.31;100780.66;10372594;28;20069;-65
2022/12/02 18:29:12;;;;;;;9.57;4.50;;;;;;;4.32;72.05;100787.22;10375750;28;20157;-65
2022/12/02 18:34:14;;;;;;;12.05;4.95;;;;;;;4.26;72.22;100785.03;10321969;28;20496;-64
2022/12/02 18:39:15;;;;;;;11.13;4.82;;;;;;;4.25;72.43;100780.72;10327745;28;20132;-64
2022/12/02 18:44:16;;;;;;;10.25;4.50;;;;;;;4.18;72.59;100781.19;10323605;28;20125;-65
2022/12/02 18:49:18;;;;;;;10.82;5.38;;;;;;;4.15;72.48;100776.13;10323719;28;20264;-64
2022/12/02 18:54:19;;;;;;;9.82;4.78;;;;;;;4.08;72.68;100766.94;10324111;28;20141;-64
2022/12/02 18:59:21;;;;;;;9.80;5.50;;;;;;;3.95;72.98;100768.91;10318683;28;20060;-65
2022/12/02 19:04:22;;;;;;;10.00;5.13;;;;;;;3.99;72.91;100773.00;10312395;28;20079;-65
2022/12/02 19:09:24;;;;;;;9.95;4.47;;;;;;;4.00;72.87;100766.72;10316719;28;20513;-64
2022/12/02 19:14:25;;;;;;;10.18;4.80;;;;;;;3.94;72.89;100762.72;10319037;28;20133;-64
2022/12/02 19:19:26;;;;;;;8.38;3.90;;;;;;;3.93;72.67;100763.72;10319884;28;20461;-65
2022/12/02 19:24:28;;;;;;;10.88;5.18;;;;;;;3.78;73.22;100760.44;10339428;28;20461;-65
2022/12/02 19:29:29;;;;;;;10.45;4.95;;;;;;;3.78;73.23;100770.25;10330261;28;20061;-66
2022/12/02 19:34:31;;;;;;;11.82;4.50;;;;;;;3.75;73.31;100757.19;10366696;28;20227;-65
2022/12/02 19:39:32;;;;;;;13.25;4.97;;;;;;;3.71;73.45;100753.94;10367700;28;20468;-65
2022/12/02 19:44:33;;;;;;;7.65;4.13;;;;;;;3.73;73.32;100759.97;10369288;28;20069;-66
2022/12/02 19:49:35;;;;;;;9.15;4.50;;;;;;;3.77;73.03;100764.09;10365738;28;20145;-66
2022/12/02 19:54:36;;;;;;;10.50;4.47;;;;;;;3.60;73.88;100766.38;10363565;28;20523;-65
2022/12/02 19:59:38;;;;;;;13.18;5.68;;;;;;;3.57;73.99;100767.47;10364297;28;20821;-66
2022/12/02 20:04:39;;;;;;;9.05;4.47;;;;;;;3.55;73.73;100758.75;10368712;28;20454;-65
2022/12/02 20:09:42;;;;;;;10.77;5.28;;;;;;;3.62;73.62;100759.16;10345490;28;20118;-66
2022/12/02 20:14:44;;;;;;;9.88;5.13;;;;;;;3.61;73.67;100763.59;10353709;28;20551;-65
2022/12/02 20:19:45;;;;;;;10.88;5.28;;;;;;;3.66;73.81;100769.41;10353321;28;20860;-65
2022/12/02 20:24:47;;;;;;;9.88;4.60;;;;;;;3.67;73.36;100764.91;10358951;28;20630;-65
2022/12/02 20:29:48;;;;;;;13.60;5.35;;;;;;;3.57;73.74;100770.13;10360717;28;20133;-65
2022/12/02 20:34:50;;;;;;;12.32;5.07;;;;;;;3.55;74.07;100770.25;10360776;28;20189;-65
2022/12/02 20:39:51;;;;;;;14.20;4.82;;;;;;;3.55;74.06;100766.72;10373447;28;20046;-65
2022/12/02 20:44:53;;;;;;;11.85;5.15;;;;;;;3.58;73.83;100771.81;10374002;28;20129;-64
2022/12/02 20:49:55;;;;;;;10.68;5.03;;;;;;;3.65;73.62;100769.50;10364003;28;20044;-64
2022/12/02 20:54:57;;;;;;;10.98;5.18;;;;;;;3.65;73.91;100774.84;10359182;28;20141;-64
2022/12/02 20:59:58;;;;;;;10.95;5.10;;;;;;;3.64;73.94;100774.00;10366073;28;20137;-63
2022/12/02 21:04:59;;;;;;;12.15;4.68;;;;;;;3.65;73.91;100783.63;10366538;28;20132;-64
2022/12/02 21:10:01;;;;;;;11.25;5.35;;;;;;;3.64;73.82;100781.97;10374455;28;20133;-64
2022/12/02 21:15:04;;;;;;;12.27;5.47;;;;;;;3.60;74.24;100777.84;10369022;28;20076;-64
2022/12/02 21:20:06;;;;;;;14.05;6.15;;;;;;;3.59;74.17;100778.81;10369343;28;20049;-65
2022/12/02 21:25:07;;;;;;;13.68;5.78;;;;;;;3.61;73.78;100778.69;10346818;28;20050;-65
2022/12/02 21:30:12;;;;;;;12.00;5.53;;;;;;;3.60;74.10;100777.03;10364841;28;20050;-65
2022/12/02 21:35:13;;;;;;;13.55;5.85;;;;;;;3.55;74.36;100777.38;10364689;28;20141;-64
2022/12/02 21:40:15;;;;;;;17.10;6.47;;;;;;;3.51;74.51;100776.75;10349177;28;20062;-64
2022/12/02 21:45:16;;;;;;;13.90;5.82;;;;;;;3.53;74.54;100785.44;10346894;28;20077;-65
2022/12/02 21:50:18;;;;;;;14.90;6.80;;;;;;;3.56;74.28;100781.72;10348295;28;20054;-65
2022/12/02 21:55:19;;;;;;;12.90;6.20;;;;;;;3.57;74.04;100778.09;10354399;28;20050;-64
2022/12/02 22:00:21;;;;;;;15.90;6.35;;;;;;;3.60;74.24;100787.66;10347634;28;20058;-64
2022/12/02 22:05:26;;;;;;;15.70;6.70;;;;;;;3.61;74.17;100789.34;10363155;28;20148;-65
2022/12/02 22:10:27;;;;;;;15.63;6.50;;;;;;;3.59;74.26;100786.78;10359725;28;20104;-65
2022/12/02 22:15:28;;;;;;;13.65;6.40;;;;;;;3.60;74.56;100792.97;10372517;28;20054;-65
2022/12/02 22:20:30;;;;;;;16.80;7.10;;;;;;;3.57;74.31;100794.03;10364605;28;20065;-64
2022/12/02 22:25:31;;;;;;;23.45;8.85;;;;;;;3.58;74.34;100799.25;10376953;28;20050;-65
2022/12/02 22:30:33;;;;;;;16.50;6.60;;;;;;;3.57;74.24;100808.19;10363781;28;20081;-64
2022/12/02 22:35:34;;;;;;;21.88;7.43;;;;;;;3.62;74.29;100801.66;10367458;28;20071;-64
2022/12/02 22:40:35;;;;;;;20.10;7.18;;;;;;;3.59;74.54;100805.38;10368379;28;20089;-64
2022/12/02 22:45:37;;;;;;;18.45;6.50;;;;;;;3.58;74.28;100798.41;10367932;28;20174;-64
2022/12/02 22:50:38;;;;;;;16.98;7.25;;;;;;;3.59;74.20;100794.75;10377540;28;20041;-62
2022/12/02 22:55:40;;;;;;;18.30;7.60;;;;;;;3.57;74.60;100797.56;10373440;28;20080;-63
2022/12/02 23:00:41;;;;;;;18.00;6.47;;;;;;;3.49;74.79;100791.13;10366829;28;20069;-61
2022/12/02 23:05:42;;;;;;;18.58;8.23;;;;;;;3.51;74.67;100784.72;10369359;28;20050;-63